sensor_id;sensor_type;location;lat;lon;timestamp;P1;durP1;ratioP1;P2;durP2;ratioP2
17886;SDS011;9069;52.044;7.472;2024-03-06T00:00:11;41.05;;;22.25;;
17886;SDS011;9069;52.044;7.472;2024-03-06T00:02:39;44.13;;;23.88;;
17886;SDS011;9069;52.044;7.472;2024-03-06T00:05:06;41.60;;;22.63;;
17886;SDS011;9069;52.044;7.472;2024-03-06T00:07:34;43.90;;;24.55;;
17886;SDS011;9069;52.044;7.472;2024-03-06T00:10:01;43.45;;;25.15;;
17886;SDS011;9069;52.044;7.472;2024-03-06T00:12:31;42.67;;;23.63;;
17886;SDS011;9069;52.044;7.472;2024-03-06T00:14:57;47.40;;;25.27;;
17886;SDS011;9069;52.044;7.472;2024-03-06T00:17:24;48.15;;;25.88;;
17886;SDS011;9069;52.044;7.472;2024-03-06T00:19:51;43.60;;;24.80;;
17886;SDS011;9069;52.044;7.472;2024-03-06T00:22:18;47.08;;;25.27;;
17886;SDS011;9069;52.044;7.472;2024-03-06T00:24:49;47.08;;;25.13;;
17886;SDS011;9069;52.044;7.472;2024-03-06T00:27:16;51.08;;;25.98;;
17886;SDS011;9069;52.044;7.472;2024-03-06T00:29:43;42.75;;;23.38;;
17886;SDS011;9069;52.044;7.472;2024-03-06T00:32:10;48.47;;;24.45;;
17886;SDS011;9069;52.044;7.472;2024-03-06T00:34:37;46.22;;;24.77;;
17886;SDS011;9069;52.044;7.472;2024-03-06T00:37:04;44.28;;;24.85;;
17886;SDS011;9069;52.044;7.472;2024-03-06T00:39:31;46.50;;;25.67;;
17886;SDS011;9069;52.044;7.472;2024-03-06T00:41:57;45.55;;;25.50;;
17886;SDS011;9069;52.044;7.472;2024-03-06T00:44:24;48.63;;;26.77;;
17886;SDS011;9069;52.044;7.472;2024-03-06T00:46:51;43.38;;;24.60;;
17886;SDS011;9069;52.044;7.472;2024-03-06T00:49:18;45.38;;;25.38;;
17886;SDS011;9069;52.044;7.472;2024-03-06T00:51:45;50.90;;;25.70;;
17886;SDS011;9069;52.044;7.472;2024-03-06T00:54:15;53.83;;;26.27;;
17886;SDS011;9069;52.044;7.472;2024-03-06T00:56:43;44.60;;;25.50;;
17886;SDS011;9069;52.044;7.472;2024-03-06T00:59:10;49.55;;;25.33;;
17886;SDS011;9069;52.044;7.472;2024-03-06T01:01:37;46.95;;;26.00;;
17886;SDS011;9069;52.044;7.472;2024-03-06T01:04:04;52.80;;;26.95;;
17886;SDS011;9069;52.044;7.472;2024-03-06T01:06:31;51.60;;;26.65;;
17886;SDS011;9069;52.044;7.472;2024-03-06T01:08:58;47.97;;;24.83;;
17886;SDS011;9069;52.044;7.472;2024-03-06T01:11:25;48.00;;;26.33;;
17886;SDS011;9069;52.044;7.472;2024-03-06T01:13:53;51.55;;;26.08;;
17886;SDS011;9069;52.044;7.472;2024-03-06T01:16:20;51.70;;;26.65;;
17886;SDS011;9069;52.044;7.472;2024-03-06T01:18:47;56.90;;;26.50;;
17886;SDS011;9069;52.044;7.472;2024-03-06T01:21:14;47.45;;;25.90;;
17886;SDS011;9069;52.044;7.472;2024-03-06T01:23:41;49.58;;;26.33;;
17886;SDS011;9069;52.044;7.472;2024-03-06T01:26:07;53.83;;;26.90;;
17886;SDS011;9069;52.044;7.472;2024-03-06T01:28:35;49.05;;;25.73;;
17886;SDS011;9069;52.044;7.472;2024-03-06T01:31:03;50.15;;;26.63;;
17886;SDS011;9069;52.044;7.472;2024-03-06T01:33:30;51.88;;;26.50;;
17886;SDS011;9069;52.044;7.472;2024-03-06T01:35:57;52.75;;;26.15;;
17886;SDS011;9069;52.044;7.472;2024-03-06T01:38:24;55.40;;;25.83;;
17886;SDS011;9069;52.044;7.472;2024-03-06T01:40:51;54.33;;;26.40;;
17886;SDS011;9069;52.044;7.472;2024-03-06T01:43:21;53.00;;;26.67;;
17886;SDS011;9069;52.044;7.472;2024-03-06T01:45:49;48.70;;;26.77;;
17886;SDS011;9069;52.044;7.472;2024-03-06T01:48:17;59.35;;;27.85;;
17886;SDS011;9069;52.044;7.472;2024-03-06T01:50:46;60.13;;;29.27;;
17886;SDS011;9069;52.044;7.472;2024-03-06T01:53:14;52.47;;;26.90;;
17886;SDS011;9069;52.044;7.472;2024-03-06T01:55:43;56.85;;;27.85;;
17886;SDS011;9069;52.044;7.472;2024-03-06T01:58:10;49.50;;;25.35;;
17886;SDS011;9069;52.044;7.472;2024-03-06T02:00:37;53.95;;;27.08;;
17886;SDS011;9069;52.044;7.472;2024-03-06T02:03:04;52.33;;;27.63;;
17886;SDS011;9069;52.044;7.472;2024-03-06T02:05:33;59.75;;;27.83;;
17886;SDS011;9069;52.044;7.472;2024-03-06T02:08:01;52.17;;;26.35;;
17886;SDS011;9069;52.044;7.472;2024-03-06T02:10:30;49.08;;;26.27;;
17886;SDS011;9069;52.044;7.472;2024-03-06T02:12:57;53.78;;;27.02;;
17886;SDS011;9069;52.044;7.472;2024-03-06T02:15:24;57.42;;;26.85;;
17886;SDS011;9069;52.044;7.472;2024-03-06T02:17:51;58.25;;;25.70;;
17886;SDS011;9069;52.044;7.472;2024-03-06T02:20:23;53.08;;;26.33;;
17886;SDS011;9069;52.044;7.472;2024-03-06T02:22:51;54.42;;;26.60;;
17886;SDS011;9069;52.044;7.472;2024-03-06T02:25:18;54.22;;;26.73;;
17886;SDS011;9069;52.044;7.472;2024-03-06T02:27:45;53.10;;;28.15;;
17886;SDS011;9069;52.044;7.472;2024-03-06T02:30:14;51.83;;;27.65;;
17886;SDS011;9069;52.044;7.472;2024-03-06T02:32:41;54.50;;;26.90;;
17886;SDS011;9069;52.044;7.472;2024-03-06T02:35:10;52.70;;;26.23;;
17886;SDS011;9069;52.044;7.472;2024-03-06T02:37:37;57.17;;;27.17;;
17886;SDS011;9069;52.044;7.472;2024-03-06T02:40:05;60.67;;;28.85;;
17886;SDS011;9069;52.044;7.472;2024-03-06T02:42:33;52.60;;;27.25;;
17886;SDS011;9069;52.044;7.472;2024-03-06T02:45:01;53.65;;;27.65;;
17886;SDS011;9069;52.044;7.472;2024-03-06T02:47:28;46.97;;;26.27;;
17886;SDS011;9069;52.044;7.472;2024-03-06T02:49:55;56.97;;;27.42;;
17886;SDS011;9069;52.044;7.472;2024-03-06T02:52:22;57.90;;;27.80;;
17886;SDS011;9069;52.044;7.472;2024-03-06T02:54:49;53.05;;;25.95;;
17886;SDS011;9069;52.044;7.472;2024-03-06T02:57:15;55.53;;;27.38;;
17886;SDS011;9069;52.044;7.472;2024-03-06T02:59:42;52.85;;;27.60;;
17886;SDS011;9069;52.044;7.472;2024-03-06T03:02:09;56.03;;;27.85;;
17886;SDS011;9069;52.044;7.472;2024-03-06T03:04:36;66.47;;;29.60;;
17886;SDS011;9069;52.044;7.472;2024-03-06T03:07:03;61.08;;;27.17;;
17886;SDS011;9069;52.044;7.472;2024-03-06T03:09:31;62.33;;;29.45;;
17886;SDS011;9069;52.044;7.472;2024-03-06T03:11:58;60.40;;;29.83;;
17886;SDS011;9069;52.044;7.472;2024-03-06T03:14:25;65.68;;;30.10;;
17886;SDS011;9069;52.044;7.472;2024-03-06T03:16:52;60.85;;;29.25;;
17886;SDS011;9069;52.044;7.472;2024-03-06T03:19:19;58.58;;;28.52;;
17886;SDS011;9069;52.044;7.472;2024-03-06T03:21:46;56.33;;;28.25;;
17886;SDS011;9069;52.044;7.472;2024-03-06T03:24:13;63.13;;;28.88;;
17886;SDS011;9069;52.044;7.472;2024-03-06T03:26:40;58.65;;;27.33;;
17886;SDS011;9069;52.044;7.472;2024-03-06T03:29:08;54.88;;;26.70;;
17886;SDS011;9069;52.044;7.472;2024-03-06T03:31:35;60.75;;;28.60;;
17886;SDS011;9069;52.044;7.472;2024-03-06T03:34:05;65.82;;;27.42;;
17886;SDS011;9069;52.044;7.472;2024-03-06T03:36:32;57.58;;;27.20;;
17886;SDS011;9069;52.044;7.472;2024-03-06T03:38:59;55.22;;;24.90;;
17886;SDS011;9069;52.044;7.472;2024-03-06T03:41:26;55.90;;;25.80;;
17886;SDS011;9069;52.044;7.472;2024-03-06T03:43:53;57.75;;;26.63;;
17886;SDS011;9069;52.044;7.472;2024-03-06T03:46:20;54.25;;;27.15;;
17886;SDS011;9069;52.044;7.472;2024-03-06T03:48:47;66.35;;;28.85;;
17886;SDS011;9069;52.044;7.472;2024-03-06T03:51:13;56.55;;;27.00;;
17886;SDS011;9069;52.044;7.472;2024-03-06T03:53:44;71.15;;;27.52;;
17886;SDS011;9069;52.044;7.472;2024-03-06T03:56:11;59.08;;;27.33;;
17886;SDS011;9069;52.044;7.472;2024-03-06T03:58:38;62.78;;;27.17;;
17886;SDS011;9069;52.044;7.472;2024-03-06T04:01:04;65.13;;;27.88;;
17886;SDS011;9069;52.044;7.472;2024-03-06T04:03:31;59.28;;;26.70;;
17886;SDS011;9069;52.044;7.472;2024-03-06T04:05:59;60.47;;;26.52;;
17886;SDS011;9069;52.044;7.472;2024-03-06T04:08:28;64.03;;;26.73;;
17886;SDS011;9069;52.044;7.472;2024-03-06T04:10:55;65.78;;;27.50;;
17886;SDS011;9069;52.044;7.472;2024-03-06T04:13:22;65.43;;;26.95;;
17886;SDS011;9069;52.044;7.472;2024-03-06T04:15:49;59.45;;;26.40;;
17886;SDS011;9069;52.044;7.472;2024-03-06T04:18:16;70.90;;;27.55;;
17886;SDS011;9069;52.044;7.472;2024-03-06T04:20:43;61.20;;;26.05;;
17886;SDS011;9069;52.044;7.472;2024-03-06T04:23:10;66.93;;;26.98;;
17886;SDS011;9069;52.044;7.472;2024-03-06T04:25:37;69.32;;;25.90;;
17886;SDS011;9069;52.044;7.472;2024-03-06T04:28:06;50.85;;;24.35;;
17886;SDS011;9069;52.044;7.472;2024-03-06T04:30:35;62.42;;;25.83;;
17886;SDS011;9069;52.044;7.472;2024-03-06T04:33:04;55.72;;;26.27;;
17886;SDS011;9069;52.044;7.472;2024-03-06T04:35:31;61.63;;;25.23;;
17886;SDS011;9069;52.044;7.472;2024-03-06T04:37:58;58.15;;;26.42;;
17886;SDS011;9069;52.044;7.472;2024-03-06T04:40:24;54.97;;;23.65;;
17886;SDS011;9069;52.044;7.472;2024-03-06T04:42:51;58.67;;;24.02;;
17886;SDS011;9069;52.044;7.472;2024-03-06T04:45:18;58.92;;;23.75;;
17886;SDS011;9069;52.044;7.472;2024-03-06T04:47:45;48.13;;;23.55;;
17886;SDS011;9069;52.044;7.472;2024-03-06T04:50:12;51.80;;;23.88;;
17886;SDS011;9069;52.044;7.472;2024-03-06T04:52:41;49.08;;;22.83;;
17886;SDS011;9069;52.044;7.472;2024-03-06T04:55:08;60.20;;;22.88;;
17886;SDS011;9069;52.044;7.472;2024-03-06T04:57:37;52.35;;;23.85;;
17886;SDS011;9069;52.044;7.472;2024-03-06T05:00:04;56.53;;;24.17;;
17886;SDS011;9069;52.044;7.472;2024-03-06T05:02:35;66.60;;;24.17;;
17886;SDS011;9069;52.044;7.472;2024-03-06T05:05:20;54.22;;;23.33;;
17886;SDS011;9069;52.044;7.472;2024-03-06T05:08:05;48.78;;;22.65;;
17886;SDS011;9069;52.044;7.472;2024-03-06T05:10:50;55.33;;;24.90;;
17886;SDS011;9069;52.044;7.472;2024-03-06T05:13:35;63.50;;;23.45;;
17886;SDS011;9069;52.044;7.472;2024-03-06T05:16:19;54.03;;;22.38;;
17886;SDS011;9069;52.044;7.472;2024-03-06T05:19:03;54.38;;;23.10;;
17886;SDS011;9069;52.044;7.472;2024-03-06T05:21:48;55.97;;;23.65;;
17886;SDS011;9069;52.044;7.472;2024-03-06T05:24:33;49.05;;;23.30;;
17886;SDS011;9069;52.044;7.472;2024-03-06T05:27:17;50.30;;;23.73;;
17886;SDS011;9069;52.044;7.472;2024-03-06T05:30:02;50.70;;;21.40;;
17886;SDS011;9069;52.044;7.472;2024-03-06T05:32:49;55.50;;;23.50;;
17886;SDS011;9069;52.044;7.472;2024-03-06T05:35:33;59.90;;;24.33;;
17886;SDS011;9069;52.044;7.472;2024-03-06T05:38:18;56.75;;;23.33;;
17886;SDS011;9069;52.044;7.472;2024-03-06T05:41:02;63.35;;;24.77;;
17886;SDS011;9069;52.044;7.472;2024-03-06T05:43:47;48.58;;;22.60;;
17886;SDS011;9069;52.044;7.472;2024-03-06T05:46:31;52.28;;;22.40;;
17886;SDS011;9069;52.044;7.472;2024-03-06T05:49:16;56.65;;;24.67;;
17886;SDS011;9069;52.044;7.472;2024-03-06T05:52:01;55.08;;;24.02;;
17886;SDS011;9069;52.044;7.472;2024-03-06T05:54:46;53.50;;;25.15;;
17886;SDS011;9069;52.044;7.472;2024-03-06T05:57:31;48.40;;;23.25;;
17886;SDS011;9069;52.044;7.472;2024-03-06T06:00:15;60.00;;;24.05;;
17886;SDS011;9069;52.044;7.472;2024-03-06T06:02:44;55.25;;;23.80;;
17886;SDS011;9069;52.044;7.472;2024-03-06T06:05:12;46.28;;;23.05;;
17886;SDS011;9069;52.044;7.472;2024-03-06T06:07:44;48.05;;;21.92;;
17886;SDS011;9069;52.044;7.472;2024-03-06T06:10:11;53.22;;;25.40;;
17886;SDS011;9069;52.044;7.472;2024-03-06T06:12:38;54.85;;;23.02;;
17886;SDS011;9069;52.044;7.472;2024-03-06T06:15:04;57.90;;;24.67;;
17886;SDS011;9069;52.044;7.472;2024-03-06T06:17:33;55.40;;;24.58;;
17886;SDS011;9069;52.044;7.472;2024-03-06T06:20:01;54.60;;;25.20;;
17886;SDS011;9069;52.044;7.472;2024-03-06T06:22:28;50.53;;;24.33;;
17886;SDS011;9069;52.044;7.472;2024-03-06T06:24:55;63.45;;;26.65;;
17886;SDS011;9069;52.044;7.472;2024-03-06T06:27:22;51.35;;;23.25;;
17886;SDS011;9069;52.044;7.472;2024-03-06T06:29:52;61.97;;;26.38;;
17886;SDS011;9069;52.044;7.472;2024-03-06T06:32:21;58.33;;;25.88;;
17886;SDS011;9069;52.044;7.472;2024-03-06T06:34:48;56.83;;;25.75;;
17886;SDS011;9069;52.044;7.472;2024-03-06T06:37:15;61.75;;;25.33;;
17886;SDS011;9069;52.044;7.472;2024-03-06T06:39:42;56.80;;;26.38;;
17886;SDS011;9069;52.044;7.472;2024-03-06T06:42:09;56.80;;;25.92;;
17886;SDS011;9069;52.044;7.472;2024-03-06T06:44:37;58.70;;;25.38;;
17886;SDS011;9069;52.044;7.472;2024-03-06T06:47:04;59.33;;;25.35;;
17886;SDS011;9069;52.044;7.472;2024-03-06T06:49:31;51.95;;;24.08;;
17886;SDS011;9069;52.044;7.472;2024-03-06T06:51:59;46.83;;;22.73;;
17886;SDS011;9069;52.044;7.472;2024-03-06T06:54:26;50.30;;;24.05;;
17886;SDS011;9069;52.044;7.472;2024-03-06T06:56:53;48.92;;;23.85;;
17886;SDS011;9069;52.044;7.472;2024-03-06T06:59:20;59.20;;;26.05;;
17886;SDS011;9069;52.044;7.472;2024-03-06T07:01:50;54.30;;;24.30;;
17886;SDS011;9069;52.044;7.472;2024-03-06T07:04:17;53.95;;;24.65;;
17886;SDS011;9069;52.044;7.472;2024-03-06T07:06:46;47.80;;;23.45;;
17886;SDS011;9069;52.044;7.472;2024-03-06T07:09:13;56.47;;;25.48;;
17886;SDS011;9069;52.044;7.472;2024-03-06T07:11:43;47.20;;;22.83;;
17886;SDS011;9069;52.044;7.472;2024-03-06T07:14:12;48.13;;;23.45;;
17886;SDS011;9069;52.044;7.472;2024-03-06T07:16:42;51.33;;;24.52;;
17886;SDS011;9069;52.044;7.472;2024-03-06T07:19:10;50.35;;;24.40;;
17886;SDS011;9069;52.044;7.472;2024-03-06T07:21:37;49.38;;;23.67;;
17886;SDS011;9069;52.044;7.472;2024-03-06T07:24:04;54.05;;;26.27;;
17886;SDS011;9069;52.044;7.472;2024-03-06T07:26:32;51.05;;;24.77;;
17886;SDS011;9069;52.044;7.472;2024-03-06T07:29:00;50.70;;;23.63;;
17886;SDS011;9069;52.044;7.472;2024-03-06T07:31:28;51.20;;;24.85;;
17886;SDS011;9069;52.044;7.472;2024-03-06T07:33:55;54.15;;;25.33;;
17886;SDS011;9069;52.044;7.472;2024-03-06T07:36:22;47.75;;;24.08;;
17886;SDS011;9069;52.044;7.472;2024-03-06T07:38:48;45.03;;;24.02;;
17886;SDS011;9069;52.044;7.472;2024-03-06T07:41:15;55.95;;;25.35;;
17886;SDS011;9069;52.044;7.472;2024-03-06T07:43:43;55.03;;;24.40;;
17886;SDS011;9069;52.044;7.472;2024-03-06T07:46:09;50.75;;;24.35;;
17886;SDS011;9069;52.044;7.472;2024-03-06T07:48:37;49.35;;;23.65;;
17886;SDS011;9069;52.044;7.472;2024-03-06T07:51:05;61.83;;;23.50;;
17886;SDS011;9069;52.044;7.472;2024-03-06T07:53:33;51.90;;;24.67;;
17886;SDS011;9069;52.044;7.472;2024-03-06T07:56:00;55.28;;;24.80;;
17886;SDS011;9069;52.044;7.472;2024-03-06T07:58:30;48.25;;;25.15;;
17886;SDS011;9069;52.044;7.472;2024-03-06T08:00:57;57.45;;;25.35;;
17886;SDS011;9069;52.044;7.472;2024-03-06T08:03:31;52.85;;;25.25;;
17886;SDS011;9069;52.044;7.472;2024-03-06T08:05:57;53.33;;;24.75;;
17886;SDS011;9069;52.044;7.472;2024-03-06T08:08:24;51.80;;;23.63;;
17886;SDS011;9069;52.044;7.472;2024-03-06T08:10:51;52.83;;;23.85;;
17886;SDS011;9069;52.044;7.472;2024-03-06T08:13:18;51.22;;;24.40;;
17886;SDS011;9069;52.044;7.472;2024-03-06T08:15:46;49.72;;;24.65;;
17886;SDS011;9069;52.044;7.472;2024-03-06T08:18:13;44.90;;;22.50;;
17886;SDS011;9069;52.044;7.472;2024-03-06T08:20:41;44.72;;;22.75;;
17886;SDS011;9069;52.044;7.472;2024-03-06T08:23:09;46.65;;;23.52;;
17886;SDS011;9069;52.044;7.472;2024-03-06T08:25:39;46.45;;;23.40;;
17886;SDS011;9069;52.044;7.472;2024-03-06T08:28:06;50.50;;;24.27;;
17886;SDS011;9069;52.044;7.472;2024-03-06T08:30:33;48.20;;;22.88;;
17886;SDS011;9069;52.044;7.472;2024-03-06T08:33:02;48.45;;;23.63;;
17886;SDS011;9069;52.044;7.472;2024-03-06T08:35:29;44.22;;;23.50;;
17886;SDS011;9069;52.044;7.472;2024-03-06T08:37:56;48.97;;;23.63;;
17886;SDS011;9069;52.044;7.472;2024-03-06T08:40:23;46.17;;;21.88;;
17886;SDS011;9069;52.044;7.472;2024-03-06T08:42:52;42.17;;;21.80;;
17886;SDS011;9069;52.044;7.472;2024-03-06T08:45:18;41.95;;;20.80;;
17886;SDS011;9069;52.044;7.472;2024-03-06T08:47:45;43.90;;;21.23;;
17886;SDS011;9069;52.044;7.472;2024-03-06T08:50:15;44.83;;;22.40;;
17886;SDS011;9069;52.044;7.472;2024-03-06T08:52:42;44.53;;;22.23;;
17886;SDS011;9069;52.044;7.472;2024-03-06T08:55:09;44.13;;;22.77;;
17886;SDS011;9069;52.044;7.472;2024-03-06T08:57:37;41.83;;;21.27;;
17886;SDS011;9069;52.044;7.472;2024-03-06T09:00:05;44.42;;;22.58;;
17886;SDS011;9069;52.044;7.472;2024-03-06T09:02:38;42.47;;;20.70;;
17886;SDS011;9069;52.044;7.472;2024-03-06T09:05:07;44.80;;;22.50;;
17886;SDS011;9069;52.044;7.472;2024-03-06T09:07:36;47.33;;;21.83;;
17886;SDS011;9069;52.044;7.472;2024-03-06T09:10:04;41.50;;;21.08;;
17886;SDS011;9069;52.044;7.472;2024-03-06T09:12:32;41.28;;;21.17;;
17886;SDS011;9069;52.044;7.472;2024-03-06T09:15:00;44.25;;;21.58;;
17886;SDS011;9069;52.044;7.472;2024-03-06T09:17:27;39.35;;;20.83;;
17886;SDS011;9069;52.044;7.472;2024-03-06T09:19:55;45.53;;;21.10;;
17886;SDS011;9069;52.044;7.472;2024-03-06T09:22:35;39.60;;;20.80;;
17886;SDS011;9069;52.044;7.472;2024-03-06T09:25:06;39.33;;;18.92;;
17886;SDS011;9069;52.044;7.472;2024-03-06T09:27:33;39.53;;;20.90;;
17886;SDS011;9069;52.044;7.472;2024-03-06T09:30:02;38.65;;;20.02;;
17886;SDS011;9069;52.044;7.472;2024-03-06T09:32:29;34.70;;;18.55;;
17886;SDS011;9069;52.044;7.472;2024-03-06T09:34:58;35.97;;;18.92;;
17886;SDS011;9069;52.044;7.472;2024-03-06T09:37:26;41.28;;;18.60;;
17886;SDS011;9069;52.044;7.472;2024-03-06T09:39:54;31.80;;;16.55;;
17886;SDS011;9069;52.044;7.472;2024-03-06T09:42:22;32.13;;;16.33;;
17886;SDS011;9069;52.044;7.472;2024-03-06T09:44:49;35.10;;;17.40;;
17886;SDS011;9069;52.044;7.472;2024-03-06T09:47:18;32.60;;;18.33;;
17886;SDS011;9069;52.044;7.472;2024-03-06T09:49:50;34.70;;;16.77;;
17886;SDS011;9069;52.044;7.472;2024-03-06T09:52:21;34.85;;;16.38;;
17886;SDS011;9069;52.044;7.472;2024-03-06T09:54:50;32.35;;;16.83;;
17886;SDS011;9069;52.044;7.472;2024-03-06T09:57:19;29.08;;;15.77;;
17886;SDS011;9069;52.044;7.472;2024-03-06T09:59:46;29.52;;;16.02;;
17886;SDS011;9069;52.044;7.472;2024-03-06T10:02:18;33.45;;;17.05;;
17886;SDS011;9069;52.044;7.472;2024-03-06T10:05:06;30.50;;;16.35;;
17886;SDS011;9069;52.044;7.472;2024-03-06T10:07:46;35.40;;;16.38;;
17886;SDS011;9069;52.044;7.472;2024-03-06T10:10:13;29.48;;;16.52;;
17886;SDS011;9069;52.044;7.472;2024-03-06T10:12:42;28.52;;;15.73;;
17886;SDS011;9069;52.044;7.472;2024-03-06T10:15:09;27.73;;;16.40;;
17886;SDS011;9069;52.044;7.472;2024-03-06T10:17:38;27.58;;;15.20;;
17886;SDS011;9069;52.044;7.472;2024-03-06T10:20:16;25.65;;;15.57;;
17886;SDS011;9069;52.044;7.472;2024-03-06T10:22:52;31.30;;;15.65;;
17886;SDS011;9069;52.044;7.472;2024-03-06T10:25:24;25.25;;;14.68;;
17886;SDS011;9069;52.044;7.472;2024-03-06T10:30:37;22.45;;;14.35;;
17886;SDS011;9069;52.044;7.472;2024-03-06T10:33:09;23.55;;;13.82;;
17886;SDS011;9069;52.044;7.472;2024-03-06T10:35:36;26.73;;;15.77;;
17886;SDS011;9069;52.044;7.472;2024-03-06T10:38:05;24.30;;;13.68;;
17886;SDS011;9069;52.044;7.472;2024-03-06T10:40:34;25.17;;;14.27;;
17886;SDS011;9069;52.044;7.472;2024-03-06T10:43:03;24.25;;;14.10;;
17886;SDS011;9069;52.044;7.472;2024-03-06T10:45:40;24.60;;;15.00;;
17886;SDS011;9069;52.044;7.472;2024-03-06T10:48:16;28.55;;;16.13;;
17886;SDS011;9069;52.044;7.472;2024-03-06T10:50:44;27.45;;;15.88;;
17886;SDS011;9069;52.044;7.472;2024-03-06T10:53:13;29.45;;;16.42;;
17886;SDS011;9069;52.044;7.472;2024-03-06T10:55:47;30.73;;;17.05;;
17886;SDS011;9069;52.044;7.472;2024-03-06T10:58:16;32.90;;;17.27;;
17886;SDS011;9069;52.044;7.472;2024-03-06T11:00:45;29.73;;;17.30;;
17886;SDS011;9069;52.044;7.472;2024-03-06T11:03:14;31.88;;;17.52;;
17886;SDS011;9069;52.044;7.472;2024-03-06T11:05:41;31.48;;;17.73;;
17886;SDS011;9069;52.044;7.472;2024-03-06T11:08:13;29.80;;;16.75;;
17886;SDS011;9069;52.044;7.472;2024-03-06T11:10:41;35.97;;;18.80;;
17886;SDS011;9069;52.044;7.472;2024-03-06T11:13:30;32.55;;;16.77;;
17886;SDS011;9069;52.044;7.472;2024-03-06T11:15:59;31.70;;;17.02;;
17886;SDS011;9069;52.044;7.472;2024-03-06T11:20:58;33.25;;;16.52;;
17886;SDS011;9069;52.044;7.472;2024-03-06T11:23:34;33.60;;;17.13;;
17886;SDS011;9069;52.044;7.472;2024-03-06T11:26:21;30.45;;;16.88;;
17886;SDS011;9069;52.044;7.472;2024-03-06T11:28:48;30.88;;;17.23;;
17886;SDS011;9069;52.044;7.472;2024-03-06T11:31:17;33.25;;;18.23;;
17886;SDS011;9069;52.044;7.472;2024-03-06T11:33:46;32.97;;;17.48;;
17886;SDS011;9069;52.044;7.472;2024-03-06T11:36:19;31.42;;;17.27;;
17886;SDS011;9069;52.044;7.472;2024-03-06T11:41:30;34.17;;;17.05;;
17886;SDS011;9069;52.044;7.472;2024-03-06T11:43:59;40.00;;;19.15;;
17886;SDS011;9069;52.044;7.472;2024-03-06T11:49:17;32.15;;;17.90;;
17886;SDS011;9069;52.044;7.472;2024-03-06T11:51:47;33.35;;;17.25;;
17886;SDS011;9069;52.044;7.472;2024-03-06T11:54:14;30.05;;;17.05;;
17886;SDS011;9069;52.044;7.472;2024-03-06T11:56:44;34.78;;;17.80;;
17886;SDS011;9069;52.044;7.472;2024-03-06T11:59:13;32.22;;;17.27;;
17886;SDS011;9069;52.044;7.472;2024-03-06T12:01:41;32.05;;;17.27;;
17886;SDS011;9069;52.044;7.472;2024-03-06T12:04:07;29.75;;;16.80;;
17886;SDS011;9069;52.044;7.472;2024-03-06T12:06:34;34.85;;;15.88;;
17886;SDS011;9069;52.044;7.472;2024-03-06T12:09:01;34.42;;;16.85;;
17886;SDS011;9069;52.044;7.472;2024-03-06T12:11:28;33.15;;;17.65;;
17886;SDS011;9069;52.044;7.472;2024-03-06T12:13:57;31.58;;;16.73;;
17886;SDS011;9069;52.044;7.472;2024-03-06T12:16:24;31.52;;;17.80;;
17886;SDS011;9069;52.044;7.472;2024-03-06T12:18:54;32.45;;;15.88;;
17886;SDS011;9069;52.044;7.472;2024-03-06T12:21:32;34.35;;;18.27;;
17886;SDS011;9069;52.044;7.472;2024-03-06T12:24:04;29.55;;;17.33;;
17886;SDS011;9069;52.044;7.472;2024-03-06T12:26:31;29.75;;;16.98;;
17886;SDS011;9069;52.044;7.472;2024-03-06T12:29:33;33.17;;;17.73;;
17886;SDS011;9069;52.044;7.472;2024-03-06T12:31:54;31.25;;;16.83;;
17886;SDS011;9069;52.044;7.472;2024-03-06T12:34:23;37.45;;;17.48;;
17886;SDS011;9069;52.044;7.472;2024-03-06T12:36:50;33.13;;;17.00;;
17886;SDS011;9069;52.044;7.472;2024-03-06T12:39:17;31.73;;;17.98;;
17886;SDS011;9069;52.044;7.472;2024-03-06T12:41:47;32.95;;;17.27;;
17886;SDS011;9069;52.044;7.472;2024-03-06T12:44:14;30.50;;;16.67;;
17886;SDS011;9069;52.044;7.472;2024-03-06T12:46:41;36.60;;;17.98;;
17886;SDS011;9069;52.044;7.472;2024-03-06T12:49:08;32.33;;;17.55;;
17886;SDS011;9069;52.044;7.472;2024-03-06T12:51:35;34.05;;;18.33;;
17886;SDS011;9069;52.044;7.472;2024-03-06T12:54:03;35.67;;;17.55;;
17886;SDS011;9069;52.044;7.472;2024-03-06T12:56:30;33.38;;;16.88;;
17886;SDS011;9069;52.044;7.472;2024-03-06T12:58:57;33.78;;;17.70;;
17886;SDS011;9069;52.044;7.472;2024-03-06T13:01:23;37.75;;;17.55;;
17886;SDS011;9069;52.044;7.472;2024-03-06T13:03:50;32.15;;;16.75;;
17886;SDS011;9069;52.044;7.472;2024-03-06T13:06:17;33.78;;;17.90;;
17886;SDS011;9069;52.044;7.472;2024-03-06T13:08:44;34.17;;;17.88;;
17886;SDS011;9069;52.044;7.472;2024-03-06T13:11:11;35.92;;;17.27;;
17886;SDS011;9069;52.044;7.472;2024-03-06T13:13:38;31.95;;;17.70;;
17886;SDS011;9069;52.044;7.472;2024-03-06T13:16:05;33.33;;;17.92;;
17886;SDS011;9069;52.044;7.472;2024-03-06T13:18:39;38.92;;;18.38;;
17886;SDS011;9069;52.044;7.472;2024-03-06T13:21:06;28.27;;;16.63;;
17886;SDS011;9069;52.044;7.472;2024-03-06T13:23:32;31.50;;;16.80;;
17886;SDS011;9069;52.044;7.472;2024-03-06T13:26:03;31.40;;;16.75;;
17886;SDS011;9069;52.044;7.472;2024-03-06T13:28:30;31.45;;;17.23;;
17886;SDS011;9069;52.044;7.472;2024-03-06T13:30:57;30.77;;;17.55;;
17886;SDS011;9069;52.044;7.472;2024-03-06T13:33:24;35.40;;;17.58;;
17886;SDS011;9069;52.044;7.472;2024-03-06T13:35:52;30.63;;;17.00;;
17886;SDS011;9069;52.044;7.472;2024-03-06T13:38:20;27.38;;;14.82;;
17886;SDS011;9069;52.044;7.472;2024-03-06T13:40:47;27.15;;;15.63;;
17886;SDS011;9069;52.044;7.472;2024-03-06T13:43:14;30.85;;;16.38;;
17886;SDS011;9069;52.044;7.472;2024-03-06T13:45:50;33.90;;;16.40;;
17886;SDS011;9069;52.044;7.472;2024-03-06T13:48:17;31.85;;;15.23;;
17886;SDS011;9069;52.044;7.472;2024-03-06T13:50:45;27.77;;;16.08;;
17886;SDS011;9069;52.044;7.472;2024-03-06T13:53:13;25.52;;;14.77;;
17886;SDS011;9069;52.044;7.472;2024-03-06T13:55:40;27.75;;;14.23;;
17886;SDS011;9069;52.044;7.472;2024-03-06T13:58:08;24.58;;;14.98;;
17886;SDS011;9069;52.044;7.472;2024-03-06T14:00:35;30.08;;;16.42;;
17886;SDS011;9069;52.044;7.472;2024-03-06T14:03:04;29.67;;;15.65;;
17886;SDS011;9069;52.044;7.472;2024-03-06T14:05:31;29.23;;;16.05;;
17886;SDS011;9069;52.044;7.472;2024-03-06T14:07:59;30.75;;;15.18;;
17886;SDS011;9069;52.044;7.472;2024-03-06T14:10:26;25.92;;;14.93;;
17886;SDS011;9069;52.044;7.472;2024-03-06T14:12:53;28.65;;;16.00;;
17886;SDS011;9069;52.044;7.472;2024-03-06T14:15:21;28.35;;;16.45;;
17886;SDS011;9069;52.044;7.472;2024-03-06T14:17:50;28.52;;;14.75;;
17886;SDS011;9069;52.044;7.472;2024-03-06T14:20:17;25.77;;;14.68;;
17886;SDS011;9069;52.044;7.472;2024-03-06T14:22:44;25.67;;;14.55;;
17886;SDS011;9069;52.044;7.472;2024-03-06T14:25:11;28.83;;;15.57;;
17886;SDS011;9069;52.044;7.472;2024-03-06T14:27:38;24.42;;;14.07;;
17886;SDS011;9069;52.044;7.472;2024-03-06T14:30:05;27.25;;;14.82;;
17886;SDS011;9069;52.044;7.472;2024-03-06T14:32:38;25.70;;;14.57;;
17886;SDS011;9069;52.044;7.472;2024-03-06T14:35:05;34.80;;;17.05;;
17886;SDS011;9069;52.044;7.472;2024-03-06T14:37:32;29.83;;;15.32;;
17886;SDS011;9069;52.044;7.472;2024-03-06T14:39:59;25.38;;;15.07;;
17886;SDS011;9069;52.044;7.472;2024-03-06T14:42:32;24.17;;;14.95;;
17886;SDS011;9069;52.044;7.472;2024-03-06T14:44:59;29.20;;;15.73;;
17886;SDS011;9069;52.044;7.472;2024-03-06T14:47:26;27.90;;;15.43;;
17886;SDS011;9069;52.044;7.472;2024-03-06T14:49:53;25.30;;;14.57;;
17886;SDS011;9069;52.044;7.472;2024-03-06T14:52:20;31.05;;;15.48;;
17886;SDS011;9069;52.044;7.472;2024-03-06T14:54:47;28.38;;;15.45;;